Estación Meteorológica Peña el Pijo (Robertgarden) [ 11/14/19 11:50:28 CET ]

Fecha Hora Presion(HPa) Temp (°C) Humedad % Rocio (°C) Viento ( m/s) Direccion Lluvia 1Hora(mm) Lluvia 24H(mm) LLuvia Total(mm)
2019-Jun-12 01:01:46 1006.000 12.9 77 8.9         325.82
2019-Jun-12 02:01:58 1005.800 12.5 79 8.9         325.82
2019-Jun-12 03:02:14 1005.300 12.1 79 8.6         325.82
2019-Jun-12 04:03:14 1005.100 12.3 79 8.8         325.82
2019-Jun-12 05:02:00 1005.200 11.3 81 8.2         325.82
2019-Jun-12 06:01:46 1005.400 11.0 82 8.0         325.82
2019-Jun-12 07:01:51 1005.400 10.3 82 7.3         325.82
2019-Jun-12 08:01:41 1005.600 11.1 82 8.1         325.82
2019-Jun-12 09:01:42 1006.100 11.9 80 8.6         325.82
2019-Jun-12 10:01:49 1006.100 13.3 78 9.5         325.82
2019-Jun-12 11:01:48 1006.300 18.5 62 11.1         325.82
2019-Jun-12 12:01:44 1005.800 20.9 47 9.1         325.82
2019-Jun-12 13:01:44 1005.500 21.9 44 9.0         325.82
2019-Jun-12 14:01:41 1005.100 22.2 42 8.6         325.82
2019-Jun-12 15:01:39 1004.600 26.1 35 9.3 1.0 SSW     325.82
2019-Jun-12 16:01:43 1004.200 25.9 33 8.3         325.82
2019-Jun-12 17:01:52 1003.800 25.1 35 8.5         325.82
2019-Jun-12 18:01:47 1003.600 23.9 38 8.7         325.82
2019-Jun-12 19:01:48 1003.500 20.5 45 8.1         325.82
2019-Jun-12 20:01:40 1003.800 19.7 50 9.0         325.82
2019-Jun-12 21:01:51 1004.300 17.4 58 9.0 0.7 NW     325.82
2019-Jun-12 22:01:41 1004.600 15.6 63 8.6         325.82
2019-Jun-12 23:01:41 1005.000 14.8 67 8.7         325.82

Temperatura Máxima:26°    Temperatura Mínima:10°
Presión Máxima:1006.300 Hpa    Presión Mínima:1003.500 Hpa


Volver